createdAt,value
2023-02-05T00:00:39.189Z,1.80
2023-02-05T00:03:06.255Z,2.53
2023-02-05T00:05:33.714Z,2.10
2023-02-05T00:08:03.374Z,2.10
2023-02-05T00:10:30.605Z,1.60
2023-02-05T00:12:58.090Z,1.80
2023-02-05T00:15:25.538Z,2.07
2023-02-05T00:17:54.130Z,1.87
2023-02-05T00:20:21.454Z,1.90
2023-02-05T00:22:48.677Z,3.17
2023-02-05T00:25:15.768Z,1.93
2023-02-05T00:27:42.797Z,2.43
2023-02-05T00:30:10.369Z,1.60
2023-02-05T00:32:37.776Z,1.70
2023-02-05T00:35:05.073Z,1.67
2023-02-05T00:37:32.330Z,1.63
2023-02-05T00:39:59.273Z,1.40
2023-02-05T00:42:26.272Z,1.40
2023-02-05T00:44:53.268Z,1.60
2023-02-05T00:47:20.290Z,1.87
2023-02-05T00:49:47.379Z,2.70
2023-02-05T00:52:14.434Z,1.70
2023-02-05T00:54:41.838Z,1.77
2023-02-05T00:57:08.963Z,1.90
2023-02-05T00:59:36.125Z,1.40
2023-02-05T01:02:03.223Z,1.60
2023-02-05T01:04:30.273Z,1.60
2023-02-05T01:06:57.313Z,1.50
2023-02-05T01:09:24.494Z,1.50
2023-02-05T01:11:51.527Z,1.60
2023-02-05T01:14:18.585Z,1.73
2023-02-05T01:16:45.539Z,1.50
2023-02-05T01:19:13.197Z,1.50
2023-02-05T01:21:40.369Z,2.03
2023-02-05T01:24:07.477Z,1.70
2023-02-05T01:26:34.511Z,1.80
2023-02-05T01:29:01.572Z,1.47
2023-02-05T01:31:29.922Z,1.70
2023-02-05T01:33:57.118Z,1.20
2023-02-05T01:36:24.195Z,1.20
2023-02-05T01:38:52.932Z,2.03
2023-02-05T01:41:20.202Z,1.23
2023-02-05T01:44:06.018Z,1.10
2023-02-05T01:46:34.543Z,1.60
2023-02-05T01:49:02.593Z,1.00
2023-02-05T01:51:33.024Z,1.40
2023-02-05T01:54:00.744Z,2.10
2023-02-05T01:56:35.694Z,1.50
2023-02-05T01:59:34.123Z,1.27
2023-02-05T02:02:02.761Z,1.07
2023-02-05T02:04:37.482Z,1.43
2023-02-05T02:07:05.594Z,1.30
2023-02-05T02:09:34.467Z,1.20
2023-02-05T02:12:02.137Z,1.40
2023-02-05T02:14:32.157Z,0.77
2023-02-05T02:17:02.233Z,1.87
2023-02-05T02:19:34.610Z,1.90
2023-02-05T02:22:22.906Z,1.77
2023-02-05T02:25:25.974Z,1.90
2023-02-05T02:28:12.809Z,1.20
2023-02-05T02:30:46.061Z,1.40
2023-02-05T02:33:34.552Z,1.57
2023-02-05T02:36:13.265Z,1.10
2023-02-05T02:38:51.916Z,2.53
2023-02-05T02:41:39.852Z,1.30
2023-02-05T02:44:25.742Z,1.60
2023-02-05T02:46:57.004Z,1.50
2023-02-05T02:50:02.517Z,1.47
2023-02-05T02:52:37.595Z,2.10
2023-02-05T02:55:10.627Z,1.30
2023-02-05T02:57:40.384Z,1.40
2023-02-05T03:00:15.044Z,1.53
2023-02-05T03:02:45.069Z,1.80
2023-02-05T03:05:16.312Z,1.60
2023-02-05T03:07:49.255Z,1.30
2023-02-05T03:10:26.979Z,1.40
2023-02-05T03:12:56.165Z,1.20
2023-02-05T03:15:23.773Z,1.30
2023-02-05T03:17:52.819Z,1.37
2023-02-05T03:20:27.099Z,1.47
2023-02-05T03:22:56.090Z,1.20
2023-02-05T03:25:25.355Z,1.60
2023-02-05T03:27:54.227Z,1.10
2023-02-05T03:30:21.894Z,1.87
2023-02-05T03:33:13.192Z,1.17
2023-02-05T03:36:05.175Z,1.10
2023-02-05T03:38:44.531Z,1.47
2023-02-05T03:41:55.750Z,1.07
2023-02-05T03:45:00.048Z,0.80
2023-02-05T03:47:30.128Z,1.00
2023-02-05T03:50:18.028Z,1.00
2023-02-05T03:52:54.374Z,1.50
2023-02-05T03:55:33.315Z,1.97
2023-02-05T03:58:17.325Z,1.00
2023-02-05T04:00:45.167Z,0.87
2023-02-05T04:03:12.705Z,1.20
2023-02-05T04:05:40.822Z,1.00
2023-02-05T04:08:07.853Z,0.83
2023-02-05T04:10:34.844Z,1.13
2023-02-05T04:13:01.863Z,1.20
2023-02-05T04:15:28.859Z,1.00
2023-02-05T04:17:58.134Z,0.90
2023-02-05T04:20:25.412Z,1.20
2023-02-05T04:22:52.440Z,1.10
2023-02-05T04:25:20.696Z,1.00
2023-02-05T04:27:47.974Z,1.10
2023-02-05T04:30:15.170Z,1.10
2023-02-05T04:32:42.632Z,1.03
2023-02-05T04:35:09.739Z,1.07
2023-02-05T04:37:38.224Z,1.10
2023-02-05T04:40:06.735Z,0.97
2023-02-05T04:42:33.800Z,0.80
2023-02-05T04:45:00.940Z,1.00
2023-02-05T04:47:30.137Z,1.40
2023-02-05T04:49:57.248Z,1.67
2023-02-05T04:52:24.656Z,1.77
2023-02-05T04:54:51.794Z,1.10
2023-02-05T04:57:19.689Z,1.10
2023-02-05T04:59:46.772Z,0.90
2023-02-05T05:02:13.956Z,0.90
2023-02-05T05:04:43.115Z,1.07
2023-02-05T05:07:10.928Z,0.90
2023-02-05T05:09:38.316Z,1.30
2023-02-05T05:12:05.600Z,0.77
2023-02-05T05:14:32.820Z,1.67
2023-02-05T05:16:59.772Z,1.43
2023-02-05T05:19:26.842Z,1.30
2023-02-05T05:21:53.845Z,1.13
2023-02-05T05:24:21.058Z,1.20
2023-02-05T05:26:48.247Z,3.70
2023-02-05T05:29:15.660Z,2.13
2023-02-05T05:31:43.126Z,1.27
2023-02-05T05:34:10.282Z,1.10
2023-02-05T05:36:40.135Z,1.90
2023-02-05T05:39:25.499Z,1.67
2023-02-05T05:42:10.932Z,0.97
2023-02-05T05:44:37.982Z,1.47
2023-02-05T05:47:05.164Z,0.80
2023-02-05T05:49:32.234Z,1.40
2023-02-05T05:51:59.274Z,1.20
2023-02-05T05:54:26.336Z,1.10
2023-02-05T05:56:53.427Z,1.60
2023-02-05T05:59:20.526Z,2.23
2023-02-05T06:01:47.582Z,0.93
2023-02-05T06:04:14.777Z,1.60
2023-02-05T06:06:42.662Z,1.57
2023-02-05T06:09:11.741Z,1.37
2023-02-05T06:11:38.886Z,1.17
2023-02-05T06:14:06.132Z,1.27
2023-02-05T06:16:33.207Z,0.90
2023-02-05T06:19:00.332Z,0.80
2023-02-05T06:21:27.408Z,1.50
2023-02-05T06:23:54.451Z,1.00
2023-02-05T06:26:21.522Z,0.97
2023-02-05T06:28:49.562Z,1.50
2023-02-05T06:31:17.589Z,0.80
2023-02-05T06:33:44.886Z,1.47
2023-02-05T06:36:11.845Z,0.77
2023-02-05T06:38:38.862Z,0.70
2023-02-05T06:41:05.973Z,1.00
2023-02-05T06:43:32.943Z,1.30
2023-02-05T06:46:00.097Z,1.13
2023-02-05T06:48:27.128Z,1.30
2023-02-05T06:50:54.307Z,1.00
2023-02-05T06:53:21.315Z,0.87
2023-02-05T06:55:48.343Z,0.97
2023-02-05T06:58:15.368Z,1.73
2023-02-05T07:00:43.073Z,1.50
2023-02-05T07:03:12.477Z,0.80
2023-02-05T07:05:39.588Z,1.13
2023-02-05T07:08:06.903Z,1.10
2023-02-05T07:10:34.233Z,2.40
2023-02-05T07:13:01.415Z,1.30
2023-02-05T07:15:29.609Z,1.20
2023-02-05T07:17:57.479Z,1.00
2023-02-05T07:20:24.609Z,0.87
2023-02-05T07:22:51.722Z,1.17
2023-02-05T07:25:18.958Z,2.63
2023-02-05T07:27:46.210Z,1.20
2023-02-05T07:30:14.098Z,1.60
2023-02-05T07:32:41.318Z,1.27
2023-02-05T07:35:08.767Z,1.10
2023-02-05T07:37:37.676Z,1.10
2023-02-05T07:40:05.274Z,0.90
2023-02-05T07:42:32.841Z,1.30
2023-02-05T07:45:01.407Z,2.93
2023-02-05T07:47:28.507Z,1.93
2023-02-05T07:49:58.544Z,1.97
2023-02-05T07:52:25.771Z,1.60
2023-02-05T07:54:53.167Z,1.17
2023-02-05T07:57:20.203Z,3.83
2023-02-05T07:59:47.143Z,2.10
2023-02-05T08:02:14.303Z,1.17
2023-02-05T08:04:42.146Z,1.50
2023-02-05T08:07:13.123Z,2.37
2023-02-05T08:09:42.203Z,2.03
2023-02-05T08:12:09.573Z,1.10
2023-02-05T08:14:36.766Z,1.70
2023-02-05T08:17:06.350Z,1.10
2023-02-05T08:19:33.404Z,1.83
2023-02-05T08:22:00.466Z,1.00
2023-02-05T08:24:27.637Z,1.60
2023-02-05T08:26:54.743Z,1.77
2023-02-05T08:29:21.949Z,1.10
2023-02-05T08:31:49.269Z,1.57
2023-02-05T08:34:17.522Z,2.73
2023-02-05T08:36:45.907Z,1.60
2023-02-05T08:39:13.336Z,3.50
2023-02-05T08:41:43.052Z,1.80
2023-02-05T08:44:10.195Z,4.40
2023-02-05T08:46:49.273Z,6.33
2023-02-05T08:49:18.097Z,2.47
2023-02-05T08:51:45.539Z,2.63
2023-02-05T08:54:13.664Z,1.63
2023-02-05T08:56:41.840Z,2.50
2023-02-05T08:59:09.790Z,3.17
2023-02-05T09:01:41.020Z,1.63
2023-02-05T09:04:08.706Z,3.37
2023-02-05T09:06:36.207Z,2.63
2023-02-05T09:09:03.430Z,2.33
2023-02-05T09:11:30.865Z,1.80
2023-02-05T09:13:58.674Z,1.93
2023-02-05T09:16:26.728Z,2.70
2023-02-05T09:18:58.379Z,1.77
2023-02-05T09:21:25.634Z,2.50
2023-02-05T09:23:55.374Z,2.40
2023-02-05T09:26:24.017Z,2.47
2023-02-05T09:28:51.150Z,1.90
2023-02-05T09:31:20.665Z,1.50
2023-02-05T09:33:47.807Z,1.60
2023-02-05T09:36:18.844Z,1.47
2023-02-05T09:38:46.336Z,1.73
2023-02-05T09:41:30.285Z,1.93
2023-02-05T09:44:21.622Z,1.43
2023-02-05T09:47:06.009Z,1.73
2023-02-05T09:49:49.089Z,1.50
2023-02-05T09:52:23.073Z,1.87
2023-02-05T09:55:00.129Z,1.30
2023-02-05T09:57:39.933Z,1.43
2023-02-05T10:00:29.337Z,1.50
2023-02-05T10:03:25.571Z,1.17
2023-02-05T10:06:16.560Z,1.33
2023-02-05T10:09:41.850Z,1.30
2023-02-05T10:12:20.600Z,1.17
2023-02-05T10:15:36.188Z,1.70
2023-02-05T10:18:28.140Z,1.23
2023-02-05T10:21:25.250Z,1.20
2023-02-05T10:24:25.659Z,1.00
2023-02-05T10:26:59.579Z,1.30
2023-02-05T10:29:50.198Z,1.20
2023-02-05T10:32:23.056Z,1.90
2023-02-05T10:35:02.984Z,1.10
2023-02-05T10:37:45.680Z,1.60
2023-02-05T10:40:27.408Z,1.30
2023-02-05T10:43:02.951Z,1.10
2023-02-05T10:45:31.091Z,1.20
2023-02-05T10:48:04.897Z,1.10
2023-02-05T10:51:03.074Z,1.10
2023-02-05T10:53:31.895Z,1.10
2023-02-05T10:56:10.171Z,1.60
2023-02-05T10:58:53.821Z,1.33
2023-02-05T11:01:30.567Z,1.30
2023-02-05T11:04:11.882Z,1.30
2023-02-05T11:06:46.624Z,1.17
2023-02-05T11:09:31.494Z,1.90
2023-02-05T11:12:01.958Z,2.40
2023-02-05T11:14:38.706Z,1.30
2023-02-05T11:17:19.888Z,2.40
2023-02-05T11:20:00.695Z,1.80
2023-02-05T11:22:38.597Z,1.20
2023-02-05T11:25:26.587Z,1.40
2023-02-05T11:27:59.837Z,2.10
2023-02-05T11:30:51.148Z,1.23
2023-02-05T11:33:21.978Z,1.30
2023-02-05T11:35:54.397Z,2.40
2023-02-05T11:38:31.541Z,1.50
2023-02-05T11:41:05.718Z,1.83
2023-02-05T11:43:45.478Z,1.80
2023-02-05T11:46:19.203Z,1.27
2023-02-05T11:48:58.197Z,1.20
2023-02-05T11:51:45.943Z,2.27
2023-02-05T11:54:16.099Z,1.63
2023-02-05T11:56:43.297Z,2.00
2023-02-05T11:59:22.754Z,1.60
2023-02-05T12:01:49.845Z,1.70
2023-02-05T12:04:18.639Z,1.60
2023-02-05T12:07:00.333Z,1.70
2023-02-05T12:09:27.693Z,1.77
2023-02-05T12:12:36.838Z,1.60
2023-02-05T12:15:16.071Z,2.30
2023-02-05T12:17:57.206Z,1.80
2023-02-05T12:20:55.437Z,1.83
2023-02-05T12:24:01.795Z,1.63
2023-02-05T12:26:39.534Z,2.37
2023-02-05T12:29:29.274Z,1.90
2023-02-05T12:32:11.958Z,1.83
2023-02-05T12:35:00.598Z,1.53
2023-02-05T12:37:58.334Z,2.10
2023-02-05T12:40:51.592Z,1.87
2023-02-05T12:43:37.364Z,2.17
2023-02-05T12:46:39.937Z,2.33
2023-02-05T12:49:41.798Z,1.70
2023-02-05T12:52:16.330Z,2.20
2023-02-05T12:55:00.380Z,1.60
2023-02-05T12:57:40.762Z,1.70
2023-02-05T13:00:17.470Z,1.30
2023-02-05T13:02:50.555Z,2.30
2023-02-05T13:05:26.420Z,1.40
2023-02-05T13:08:21.060Z,1.60
2023-02-05T13:11:16.669Z,1.43
2023-02-05T13:14:17.144Z,1.50
2023-02-05T13:17:01.306Z,1.60
2023-02-05T13:19:55.827Z,1.97
2023-02-05T13:22:57.794Z,1.50
2023-02-05T13:25:54.792Z,1.90
2023-02-05T13:28:53.098Z,1.47
2023-02-05T13:31:52.516Z,1.70
2023-02-05T13:34:22.976Z,1.50
2023-02-05T13:37:02.210Z,1.70
2023-02-05T13:39:56.941Z,1.73
2023-02-05T13:42:48.766Z,1.70
2023-02-05T13:45:23.836Z,1.70
2023-02-05T13:48:19.730Z,1.63
2023-02-05T13:51:05.577Z,1.90
2023-02-05T13:53:56.522Z,1.80
2023-02-05T13:56:32.879Z,1.83
2023-02-05T13:59:07.633Z,3.43
2023-02-05T14:01:51.000Z,1.80
2023-02-05T14:04:22.017Z,1.97
2023-02-05T14:07:07.273Z,1.87
2023-02-05T14:09:56.576Z,1.80
2023-02-05T14:12:38.500Z,1.97
2023-02-05T14:15:18.102Z,1.53
2023-02-05T14:17:45.186Z,1.87
2023-02-05T14:20:41.746Z,1.70
2023-02-05T14:23:46.930Z,1.60
2023-02-05T14:26:14.435Z,1.30
2023-02-05T14:28:47.447Z,2.23
2023-02-05T14:31:46.696Z,2.10
2023-02-05T14:34:45.850Z,1.90
2023-02-05T14:37:34.692Z,1.83
2023-02-05T14:40:20.574Z,2.33
2023-02-05T14:42:47.894Z,1.97
2023-02-05T14:45:18.573Z,1.70
2023-02-05T14:47:46.226Z,1.87
2023-02-05T14:50:29.118Z,1.80
2023-02-05T14:53:02.340Z,1.77
2023-02-05T14:55:37.703Z,2.60
2023-02-05T14:58:22.306Z,2.00
2023-02-05T15:00:49.526Z,2.37
2023-02-05T15:03:26.111Z,2.07
2023-02-05T15:06:00.194Z,1.80
2023-02-05T15:08:36.309Z,2.37
2023-02-05T15:11:15.327Z,2.13
2023-02-05T15:14:03.750Z,1.87
2023-02-05T15:16:31.021Z,1.70
2023-02-05T15:19:05.361Z,1.90
2023-02-05T15:21:45.680Z,2.17
2023-02-05T15:24:24.724Z,1.90
2023-02-05T15:27:13.252Z,2.57
2023-02-05T15:29:57.417Z,2.10
2023-02-05T15:32:34.089Z,2.43
2023-02-05T15:35:22.875Z,2.57
2023-02-05T15:37:54.823Z,1.87
2023-02-05T15:40:33.737Z,2.40
2023-02-05T15:43:09.999Z,2.10
2023-02-05T15:45:40.515Z,2.10
2023-02-05T15:48:24.525Z,2.20
2023-02-05T15:50:58.144Z,2.67
2023-02-05T15:53:44.697Z,2.23
2023-02-05T15:56:23.305Z,2.20
2023-02-05T15:58:53.914Z,2.20
2023-02-05T16:01:49.302Z,2.23
2023-02-05T16:05:57.630Z,2.53
2023-02-05T16:11:22.740Z,2.30
2023-02-05T16:14:23.384Z,2.30
2023-02-05T16:17:59.244Z,2.40
2023-02-05T16:21:11.285Z,1.90
2023-02-05T16:24:40.930Z,2.90
2023-02-05T16:59:25.375Z,2.40
2023-02-05T17:01:53.797Z,2.27
2023-02-05T17:04:44.241Z,2.20
2023-02-05T17:07:20.330Z,2.57
2023-02-05T17:09:48.298Z,2.80
2023-02-05T17:12:33.501Z,3.13
2023-02-05T17:15:14.001Z,3.07
2023-02-05T17:18:06.614Z,3.10
2023-02-05T17:20:34.613Z,3.43
2023-02-05T17:23:05.356Z,3.20
2023-02-05T17:25:54.679Z,3.30
2023-02-05T17:28:27.155Z,2.97
2023-02-05T17:30:59.004Z,3.63
2023-02-05T17:33:28.135Z,3.50
2023-02-05T17:35:56.109Z,4.20
2023-02-05T17:38:25.777Z,2.80
2023-02-05T17:41:13.123Z,2.87
2023-02-05T17:43:43.089Z,3.10
2023-02-05T17:46:14.820Z,3.33
2023-02-05T17:48:46.094Z,3.10
2023-02-05T17:51:23.093Z,3.10
2023-02-05T17:53:50.700Z,2.50
2023-02-05T17:56:23.906Z,2.70
2023-02-05T17:58:52.914Z,2.80
2023-02-05T18:01:20.535Z,2.83
2023-02-05T18:03:49.984Z,2.40
2023-02-05T18:06:42.186Z,2.37
2023-02-05T18:09:29.341Z,3.10
2023-02-05T18:16:12.205Z,3.60
2023-02-05T18:22:24.845Z,3.63
2023-02-05T18:27:51.627Z,2.80
2023-02-05T18:30:35.627Z,2.93
2023-02-05T18:33:03.898Z,3.47
2023-02-05T18:35:39.832Z,4.07
2023-02-05T18:39:04.437Z,3.23
2023-02-05T18:41:42.966Z,3.93
2023-02-05T18:44:20.578Z,3.47
2023-02-05T18:50:31.518Z,3.87
2023-02-05T18:56:28.279Z,3.57
2023-02-05T19:02:48.240Z,3.63
2023-02-05T19:06:12.009Z,3.40
2023-02-05T19:08:39.804Z,3.43
2023-02-05T19:11:41.919Z,3.50
2023-02-05T19:14:20.467Z,3.40
2023-02-05T19:16:57.745Z,3.00
2023-02-05T19:29:27.186Z,2.73
2023-02-05T19:32:02.485Z,3.40
2023-02-05T19:34:47.597Z,3.30
2023-02-05T19:40:30.002Z,3.33
2023-02-05T19:43:09.833Z,2.87
2023-02-05T19:46:31.934Z,3.27
2023-02-05T19:49:48.222Z,3.53
2023-02-05T19:52:25.057Z,3.07
2023-02-05T19:55:11.165Z,3.40
2023-02-05T19:58:02.184Z,3.30
2023-02-05T20:00:41.892Z,3.40
2023-02-05T20:03:28.072Z,2.87
2023-02-05T20:06:19.526Z,3.63
2023-02-05T20:09:12.150Z,2.63
2023-02-05T20:14:47.244Z,3.00
2023-02-05T20:17:23.128Z,3.03
2023-02-05T20:20:28.113Z,2.70
2023-02-05T20:23:15.616Z,2.67
2023-02-05T20:25:44.228Z,3.10
2023-02-05T20:28:11.496Z,2.50
2023-02-05T20:31:00.430Z,3.10
2023-02-05T20:33:32.518Z,3.50
2023-02-05T20:36:10.131Z,3.73
2023-02-05T20:41:35.513Z,2.83
2023-02-05T20:44:07.613Z,2.53
2023-02-05T20:46:37.150Z,3.27
2023-02-05T20:49:14.750Z,2.80
2023-02-05T20:55:41.369Z,2.97
2023-02-05T20:58:27.196Z,2.50
2023-02-05T21:00:54.822Z,3.03
2023-02-05T21:03:21.836Z,2.60
2023-02-05T21:05:49.027Z,3.20
2023-02-05T21:08:16.091Z,2.60
2023-02-05T21:10:44.735Z,2.40
2023-02-05T21:13:11.790Z,2.60
2023-02-05T21:15:38.865Z,2.40
2023-02-05T21:18:06.060Z,2.40
2023-02-05T21:20:33.446Z,2.27
2023-02-05T21:23:02.139Z,2.10
2023-02-05T21:25:32.017Z,2.73
2023-02-05T21:27:59.670Z,2.87
2023-02-05T21:30:36.419Z,2.60
2023-02-05T21:33:03.973Z,2.57
2023-02-05T21:35:33.564Z,2.70
2023-02-05T21:38:00.672Z,2.57
2023-02-05T21:40:28.569Z,2.40
2023-02-05T21:42:55.503Z,1.70
2023-02-05T21:45:22.871Z,2.27
2023-02-05T21:47:50.038Z,2.10
2023-02-05T21:50:17.285Z,2.10
2023-02-05T21:52:44.307Z,2.10
2023-02-05T21:55:11.657Z,2.13
2023-02-05T21:57:38.685Z,3.17
2023-02-05T22:00:05.998Z,1.90
2023-02-05T22:02:33.251Z,1.87
2023-02-05T22:05:07.810Z,2.97
2023-02-05T22:07:34.953Z,2.30
2023-02-05T22:10:01.961Z,2.13
2023-02-05T22:12:28.926Z,2.50
2023-02-05T22:14:56.100Z,2.10
2023-02-05T22:17:23.193Z,1.93
2023-02-05T22:19:50.149Z,1.90
2023-02-05T22:22:17.143Z,2.20
2023-02-05T22:24:44.150Z,1.93
2023-02-05T22:27:12.043Z,2.03
2023-02-05T22:29:39.134Z,1.90
2023-02-05T22:32:06.195Z,1.90
2023-02-05T22:34:33.155Z,2.43
2023-02-05T22:37:00.236Z,1.53
2023-02-05T22:39:27.183Z,1.60
2023-02-05T22:41:54.185Z,2.30
2023-02-05T22:44:21.250Z,1.90
2023-02-05T22:46:48.261Z,1.50
2023-02-05T22:49:15.474Z,1.67
2023-02-05T22:51:43.094Z,1.80
2023-02-05T22:54:12.500Z,1.50
2023-02-05T22:56:39.851Z,1.50
2023-02-05T22:59:07.458Z,1.60
2023-02-05T23:01:36.005Z,1.67
2023-02-05T23:04:04.617Z,1.60
2023-02-05T23:06:37.673Z,2.00
2023-02-05T23:09:07.776Z,1.73
2023-02-05T23:11:35.713Z,2.20
2023-02-05T23:14:04.634Z,1.53
2023-02-05T23:16:35.357Z,1.97
2023-02-05T23:19:06.876Z,1.70
2023-02-05T23:21:35.472Z,1.60
2023-02-05T23:24:03.026Z,1.60
2023-02-05T23:26:38.617Z,2.00
2023-02-05T23:29:06.323Z,1.47
2023-02-05T23:31:33.853Z,1.77
2023-02-05T23:34:01.296Z,2.17
2023-02-05T23:36:28.489Z,1.60
2023-02-05T23:38:55.638Z,2.17
2023-02-05T23:41:37.693Z,1.60
2023-02-05T23:44:11.203Z,1.40
2023-02-05T23:46:38.960Z,1.77
2023-02-05T23:49:06.783Z,1.47
2023-02-05T23:51:34.156Z,1.47
2023-02-05T23:54:01.281Z,1.33
2023-02-05T23:56:29.659Z,1.40
2023-02-05T23:58:57.374Z,1.30
